sensor_id;sensor_type;location;lat;lon;timestamp;pressure;altitude;pressure_sealevel;temperature;humidity
28000;BME280;15328;50.860;10.562;2023-03-23T00:03:02;95599.28;;;13.43;42.41
28000;BME280;15328;50.860;10.562;2023-03-23T00:08:03;95610.53;;;13.50;41.85
28000;BME280;15328;50.860;10.562;2023-03-23T00:13:03;95608.69;;;13.51;41.84
28000;BME280;15328;50.860;10.562;2023-03-23T00:18:04;95606.16;;;13.39;42.64
28000;BME280;15328;50.860;10.562;2023-03-23T00:23:06;95605.34;;;13.39;42.40
28000;BME280;15328;50.860;10.562;2023-03-23T00:28:06;95615.53;;;13.42;42.44
28000;BME280;15328;50.860;10.562;2023-03-23T00:33:08;95625.66;;;13.40;42.78
28000;BME280;15328;50.860;10.562;2023-03-23T00:38:08;95610.69;;;13.39;43.67
28000;BME280;15328;50.860;10.562;2023-03-23T00:43:09;95622.16;;;13.34;43.52
28000;BME280;15328;50.860;10.562;2023-03-23T00:48:13;95607.47;;;13.37;43.39
28000;BME280;15328;50.860;10.562;2023-03-23T00:53:14;95592.25;;;13.37;43.42
28000;BME280;15328;50.860;10.562;2023-03-23T00:58:16;95594.63;;;13.34;43.33
28000;BME280;15328;50.860;10.562;2023-03-23T01:03:17;95600.00;;;13.39;43.25
28000;BME280;15328;50.860;10.562;2023-03-23T01:08:19;95583.41;;;13.32;43.07
28000;BME280;15328;50.860;10.562;2023-03-23T01:13:19;95581.53;;;13.32;43.57
28000;BME280;15328;50.860;10.562;2023-03-23T01:18:20;95583.06;;;13.23;44.55
28000;BME280;15328;50.860;10.562;2023-03-23T01:23:20;95571.34;;;13.24;43.71
28000;BME280;15328;50.860;10.562;2023-03-23T01:28:21;95569.69;;;13.18;43.81
28000;BME280;15328;50.860;10.562;2023-03-23T01:33:21;95563.28;;;13.19;43.88
28000;BME280;15328;50.860;10.562;2023-03-23T01:38:22;95556.75;;;13.10;43.62
28000;BME280;15328;50.860;10.562;2023-03-23T01:43:22;95540.72;;;13.10;44.04
28000;BME280;15328;50.860;10.562;2023-03-23T01:48:43;95532.22;;;13.13;43.59
28000;BME280;15328;50.860;10.562;2023-03-23T01:53:54;95531.34;;;13.02;43.85
28000;BME280;15328;50.860;10.562;2023-03-23T01:58:56;95517.19;;;13.02;43.89
28000;BME280;15328;50.860;10.562;2023-03-23T02:03:57;95499.81;;;12.99;45.01
28000;BME280;15328;50.860;10.562;2023-03-23T02:08:58;95504.63;;;13.02;44.51
28000;BME280;15328;50.860;10.562;2023-03-23T02:13:59;95495.84;;;13.07;44.90
28000;BME280;15328;50.860;10.562;2023-03-23T02:19:32;95495.78;;;12.96;44.99
28000;BME280;15328;50.860;10.562;2023-03-23T02:24:55;95492.06;;;12.97;44.99
28000;BME280;15328;50.860;10.562;2023-03-23T02:35:22;95488.31;;;12.98;45.17
28000;BME280;15328;50.860;10.562;2023-03-23T02:46:04;95477.16;;;13.07;44.50
28000;BME280;15328;50.860;10.562;2023-03-23T02:51:07;95481.16;;;13.04;45.11
28000;BME280;15328;50.860;10.562;2023-03-23T02:56:10;95483.06;;;13.09;44.97
28000;BME280;15328;50.860;10.562;2023-03-23T03:06:51;95468.13;;;13.13;44.72
28000;BME280;15328;50.860;10.562;2023-03-23T03:12:00;95479.63;;;13.13;44.64
28000;BME280;15328;50.860;10.562;2023-03-23T03:17:14;95479.06;;;13.11;45.68
28000;BME280;15328;50.860;10.562;2023-03-23T03:22:19;95492.69;;;13.10;46.40
28000;BME280;15328;50.860;10.562;2023-03-23T03:27:21;95482.28;;;13.13;46.77
28000;BME280;15328;50.860;10.562;2023-03-23T03:32:28;95467.00;;;13.04;48.03
28000;BME280;15328;50.860;10.562;2023-03-23T03:37:38;95493.66;;;12.98;47.63
28000;BME280;15328;50.860;10.562;2023-03-23T03:42:41;95475.31;;;13.07;46.91
28000;BME280;15328;50.860;10.562;2023-03-23T03:47:42;95483.75;;;12.94;47.55
28000;BME280;15328;50.860;10.562;2023-03-23T03:52:42;95483.66;;;12.84;47.92
28000;BME280;15328;50.860;10.562;2023-03-23T03:57:43;95482.84;;;12.83;48.18
28000;BME280;15328;50.860;10.562;2023-03-23T04:02:46;95496.19;;;12.83;48.56
28000;BME280;15328;50.860;10.562;2023-03-23T04:07:55;95507.94;;;12.82;48.27
28000;BME280;15328;50.860;10.562;2023-03-23T04:13:01;95512.97;;;12.79;49.09
28000;BME280;15328;50.860;10.562;2023-03-23T04:18:01;95504.69;;;12.75;50.33
28000;BME280;15328;50.860;10.562;2023-03-23T04:23:02;95496.94;;;12.74;50.22
28000;BME280;15328;50.860;10.562;2023-03-23T04:28:02;95511.31;;;12.73;49.99
28000;BME280;15328;50.860;10.562;2023-03-23T04:33:03;95516.66;;;12.73;50.76
28000;BME280;15328;50.860;10.562;2023-03-23T04:38:04;95511.13;;;12.52;51.56
28000;BME280;15328;50.860;10.562;2023-03-23T04:43:04;95509.56;;;12.56;50.35
28000;BME280;15328;50.860;10.562;2023-03-23T04:48:05;95509.22;;;12.48;52.03
28000;BME280;15328;50.860;10.562;2023-03-23T04:53:06;95514.47;;;12.37;52.83
28000;BME280;15328;50.860;10.562;2023-03-23T04:58:07;95513.66;;;12.37;53.04
28000;BME280;15328;50.860;10.562;2023-03-23T05:03:07;95526.50;;;12.18;54.91
28000;BME280;15328;50.860;10.562;2023-03-23T05:08:08;95500.03;;;12.12;55.15
28000;BME280;15328;50.860;10.562;2023-03-23T05:13:08;95531.09;;;12.01;56.13
28000;BME280;15328;50.860;10.562;2023-03-23T05:18:08;95530.91;;;11.86;57.07
28000;BME280;15328;50.860;10.562;2023-03-23T05:23:10;95522.44;;;11.89;57.20
28000;BME280;15328;50.860;10.562;2023-03-23T05:28:12;95534.13;;;11.88;57.10
28000;BME280;15328;50.860;10.562;2023-03-23T05:33:12;95534.44;;;11.74;59.01
28000;BME280;15328;50.860;10.562;2023-03-23T05:38:14;95529.81;;;11.82;58.98
28000;BME280;15328;50.860;10.562;2023-03-23T05:43:14;95529.56;;;11.66;60.30
28000;BME280;15328;50.860;10.562;2023-03-23T05:48:15;95540.22;;;11.66;59.98
28000;BME280;15328;50.860;10.562;2023-03-23T05:53:15;95539.22;;;11.72;60.33
28000;BME280;15328;50.860;10.562;2023-03-23T05:58:16;95547.78;;;11.74;60.02
28000;BME280;15328;50.860;10.562;2023-03-23T06:03:16;95544.72;;;11.83;59.86
28000;BME280;15328;50.860;10.562;2023-03-23T06:08:17;95557.06;;;11.72;61.90
28000;BME280;15328;50.860;10.562;2023-03-23T06:13:17;95556.47;;;11.48;63.13
28000;BME280;15328;50.860;10.562;2023-03-23T06:18:18;95551.13;;;11.65;62.13
28000;BME280;15328;50.860;10.562;2023-03-23T06:23:20;95537.63;;;11.71;62.51
28000;BME280;15328;50.860;10.562;2023-03-23T06:28:21;95556.00;;;11.73;62.87
28000;BME280;15328;50.860;10.562;2023-03-23T06:33:21;95558.53;;;11.63;63.82
28000;BME280;15328;50.860;10.562;2023-03-23T06:38:21;95553.59;;;11.71;63.03
28000;BME280;15328;50.860;10.562;2023-03-23T06:43:22;95574.28;;;11.64;63.43
28000;BME280;15328;50.860;10.562;2023-03-23T06:48:23;95560.72;;;11.66;63.81
28000;BME280;15328;50.860;10.562;2023-03-23T06:53:23;95568.66;;;11.61;63.83
28000;BME280;15328;50.860;10.562;2023-03-23T06:58:24;95569.47;;;11.78;63.31
28000;BME280;15328;50.860;10.562;2023-03-23T07:03:24;95559.59;;;11.62;64.74
28000;BME280;15328;50.860;10.562;2023-03-23T07:08:26;95562.56;;;11.65;64.22
28000;BME280;15328;50.860;10.562;2023-03-23T07:13:26;95558.69;;;11.73;63.98
28000;BME280;15328;50.860;10.562;2023-03-23T07:18:27;95560.78;;;11.88;63.96
28000;BME280;15328;50.860;10.562;2023-03-23T07:23:29;95565.63;;;11.91;63.59
28000;BME280;15328;50.860;10.562;2023-03-23T07:28:30;95571.97;;;12.06;63.34
28000;BME280;15328;50.860;10.562;2023-03-23T07:33:30;95566.94;;;12.10;62.43
28000;BME280;15328;50.860;10.562;2023-03-23T07:38:31;95545.72;;;12.20;62.79
28000;BME280;15328;50.860;10.562;2023-03-23T07:43:32;95555.38;;;12.26;63.17
28000;BME280;15328;50.860;10.562;2023-03-23T07:48:32;95547.97;;;12.55;62.73
28000;BME280;15328;50.860;10.562;2023-03-23T07:53:33;95566.69;;;12.87;62.80
28000;BME280;15328;50.860;10.562;2023-03-23T07:58:33;95568.88;;;12.90;61.44
28000;BME280;15328;50.860;10.562;2023-03-23T08:03:34;95556.38;;;13.23;59.58
28000;BME280;15328;50.860;10.562;2023-03-23T08:08:34;95552.25;;;13.42;59.35
28000;BME280;15328;50.860;10.562;2023-03-23T08:13:35;95569.75;;;13.65;57.46
28000;BME280;15328;50.860;10.562;2023-03-23T08:18:36;95548.09;;;13.61;55.29
28000;BME280;15328;50.860;10.562;2023-03-23T08:23:37;95564.09;;;13.99;55.88
28000;BME280;15328;50.860;10.562;2023-03-23T08:28:38;95573.75;;;14.10;54.01
28000;BME280;15328;50.860;10.562;2023-03-23T08:33:39;95584.97;;;14.07;54.56
28000;BME280;15328;50.860;10.562;2023-03-23T08:38:39;95585.00;;;14.12;53.59
28000;BME280;15328;50.860;10.562;2023-03-23T08:43:39;95603.72;;;14.12;53.14
28000;BME280;15328;50.860;10.562;2023-03-23T08:48:40;95589.25;;;14.03;53.20
28000;BME280;15328;50.860;10.562;2023-03-23T08:53:40;95559.75;;;13.92;52.72
28000;BME280;15328;50.860;10.562;2023-03-23T08:58:42;95587.25;;;13.88;53.98
28000;BME280;15328;50.860;10.562;2023-03-23T09:03:43;95565.88;;;13.88;52.64
28000;BME280;15328;50.860;10.562;2023-03-23T09:08:43;95577.03;;;13.75;53.56
28000;BME280;15328;50.860;10.562;2023-03-23T09:13:45;95597.97;;;13.88;52.63
28000;BME280;15328;50.860;10.562;2023-03-23T09:18:45;95600.56;;;13.73;53.62
28000;BME280;15328;50.860;10.562;2023-03-23T09:23:46;95608.94;;;13.91;52.95
28000;BME280;15328;50.860;10.562;2023-03-23T09:28:46;95618.03;;;13.96;52.56
28000;BME280;15328;50.860;10.562;2023-03-23T09:33:47;95663.63;;;13.74;53.17
28000;BME280;15328;50.860;10.562;2023-03-23T09:38:48;95625.22;;;13.85;53.49
28000;BME280;15328;50.860;10.562;2023-03-23T09:54:01;95638.41;;;14.44;52.84
28000;BME280;15328;50.860;10.562;2023-03-23T09:59:12;95604.28;;;14.81;51.71
28000;BME280;15328;50.860;10.562;2023-03-23T10:04:34;95635.97;;;15.10;50.20
28000;BME280;15328;50.860;10.562;2023-03-23T10:09:38;95631.13;;;15.17;49.43
28000;BME280;15328;50.860;10.562;2023-03-23T10:25:55;95626.88;;;15.52;48.56
28000;BME280;15328;50.860;10.562;2023-03-23T10:30:59;95617.22;;;15.45;47.90
28000;BME280;15328;50.860;10.562;2023-03-23T10:36:05;95616.97;;;15.37;46.78
28000;BME280;15328;50.860;10.562;2023-03-23T10:41:11;95605.44;;;15.57;47.21
28000;BME280;15328;50.860;10.562;2023-03-23T10:46:23;95604.38;;;15.73;46.67
28000;BME280;15328;50.860;10.562;2023-03-23T10:51:31;95618.59;;;15.89;45.84
28000;BME280;15328;50.860;10.562;2023-03-23T11:01:37;95612.97;;;16.65;43.43
28000;BME280;15328;50.860;10.562;2023-03-23T11:06:37;95629.84;;;16.86;42.00
28000;BME280;15328;50.860;10.562;2023-03-23T11:11:48;95621.06;;;17.14;42.43
28000;BME280;15328;50.860;10.562;2023-03-23T11:16:54;95646.31;;;17.18;43.05
28000;BME280;15328;50.860;10.562;2023-03-23T11:22:08;95656.75;;;16.76;43.73
28000;BME280;15328;50.860;10.562;2023-03-23T11:27:14;95672.13;;;16.45;46.58
28000;BME280;15328;50.860;10.562;2023-03-23T11:32:16;95667.06;;;16.13;47.77
28000;BME280;15328;50.860;10.562;2023-03-23T11:47:39;95654.78;;;15.66;51.71
28000;BME280;15328;50.860;10.562;2023-03-23T11:57:52;95648.88;;;15.74;49.21
28000;BME280;15328;50.860;10.562;2023-03-23T12:03:00;95644.84;;;16.02;49.41
28000;BME280;15328;50.860;10.562;2023-03-23T12:08:23;95640.63;;;16.71;47.66
28000;BME280;15328;50.860;10.562;2023-03-23T12:19:01;95658.97;;;17.52;43.74
28000;BME280;15328;50.860;10.562;2023-03-23T12:35:18;95644.94;;;16.72;44.71
28000;BME280;15328;50.860;10.562;2023-03-23T12:40:50;95666.19;;;16.53;45.56
28000;BME280;15328;50.860;10.562;2023-03-23T12:56:26;95672.19;;;15.84;47.66
28000;BME280;15328;50.860;10.562;2023-03-23T13:01:33;95660.38;;;15.49;47.91
28000;BME280;15328;50.860;10.562;2023-03-23T13:06:41;95650.25;;;15.66;48.50
28000;BME280;15328;50.860;10.562;2023-03-23T13:11:42;95645.13;;;15.85;48.63
28000;BME280;15328;50.860;10.562;2023-03-23T13:22:08;95649.66;;;15.49;47.67
28000;BME280;15328;50.860;10.562;2023-03-23T13:27:10;95638.41;;;15.52;47.99
28000;BME280;15328;50.860;10.562;2023-03-23T13:32:16;95642.94;;;15.57;48.07
28000;BME280;15328;50.860;10.562;2023-03-23T13:37:26;95642.16;;;15.51;47.79
28000;BME280;15328;50.860;10.562;2023-03-23T13:42:29;95648.81;;;15.28;47.03
28000;BME280;15328;50.860;10.562;2023-03-23T13:47:41;95657.06;;;14.96;47.78
28000;BME280;15328;50.860;10.562;2023-03-23T14:03:25;95622.47;;;14.74;49.30
28000;BME280;15328;50.860;10.562;2023-03-23T14:13:45;95626.53;;;14.92;49.91
28000;BME280;15328;50.860;10.562;2023-03-23T14:18:58;95628.19;;;15.08;49.72
28000;BME280;15328;50.860;10.562;2023-03-23T14:24:03;95620.97;;;15.24;48.38
28000;BME280;15328;50.860;10.562;2023-03-23T14:29:06;95613.47;;;15.36;48.53
28000;BME280;15328;50.860;10.562;2023-03-23T14:34:16;95613.22;;;15.43;48.16
28000;BME280;15328;50.860;10.562;2023-03-23T14:39:33;95621.50;;;15.31;48.26
28000;BME280;15328;50.860;10.562;2023-03-23T14:44:40;95637.88;;;15.40;48.86
28000;BME280;15328;50.860;10.562;2023-03-23T14:49:42;95610.53;;;15.58;47.90
28000;BME280;15328;50.860;10.562;2023-03-23T14:54:45;95610.25;;;15.29;47.97
28000;BME280;15328;50.860;10.562;2023-03-23T14:59:47;95592.56;;;15.28;47.75
28000;BME280;15328;50.860;10.562;2023-03-23T15:04:50;95599.28;;;15.36;47.62
28000;BME280;15328;50.860;10.562;2023-03-23T15:09:53;95607.59;;;15.39;48.06
28000;BME280;15328;50.860;10.562;2023-03-23T15:15:01;95617.22;;;15.30;47.91
28000;BME280;15328;50.860;10.562;2023-03-23T15:20:11;95621.19;;;15.02;48.42
28000;BME280;15328;50.860;10.562;2023-03-23T15:25:19;95630.81;;;14.98;48.93
28000;BME280;15328;50.860;10.562;2023-03-23T15:35:24;95620.38;;;14.87;49.51
28000;BME280;15328;50.860;10.562;2023-03-23T15:40:27;95646.63;;;14.95;49.71
28000;BME280;15328;50.860;10.562;2023-03-23T15:45:33;95645.81;;;14.89;49.55
28000;BME280;15328;50.860;10.562;2023-03-23T15:50:34;95635.84;;;14.74;49.88
28000;BME280;15328;50.860;10.562;2023-03-23T15:55:37;95640.97;;;14.81;50.05
28000;BME280;15328;50.860;10.562;2023-03-23T16:00:39;95633.13;;;14.64;50.12
28000;BME280;15328;50.860;10.562;2023-03-23T16:05:40;95628.25;;;14.51;50.58
28000;BME280;15328;50.860;10.562;2023-03-23T16:10:40;95637.34;;;14.50;50.93
28000;BME280;15328;50.860;10.562;2023-03-23T16:15:41;95625.63;;;14.56;50.84
28000;BME280;15328;50.860;10.562;2023-03-23T16:20:41;95624.28;;;14.59;51.02
28000;BME280;15328;50.860;10.562;2023-03-23T16:25:42;95640.38;;;14.64;50.94
28000;BME280;15328;50.860;10.562;2023-03-23T16:30:43;95641.44;;;14.68;50.21
28000;BME280;15328;50.860;10.562;2023-03-23T16:35:44;95638.75;;;14.58;50.28
28000;BME280;15328;50.860;10.562;2023-03-23T16:40:45;95640.06;;;14.55;50.41
28000;BME280;15328;50.860;10.562;2023-03-23T16:45:46;95634.72;;;14.55;50.59
28000;BME280;15328;50.860;10.562;2023-03-23T16:50:47;95639.97;;;14.40;51.11
28000;BME280;15328;50.860;10.562;2023-03-23T16:55:50;95641.56;;;14.36;51.81
28000;BME280;15328;50.860;10.562;2023-03-23T17:00:51;95641.00;;;14.29;51.86
28000;BME280;15328;50.860;10.562;2023-03-23T17:05:52;95631.63;;;14.26;52.10
28000;BME280;15328;50.860;10.562;2023-03-23T17:10:53;95638.72;;;14.05;53.18
28000;BME280;15328;50.860;10.562;2023-03-23T17:15:55;95643.00;;;14.06;53.63
28000;BME280;15328;50.860;10.562;2023-03-23T17:20:56;95636.03;;;14.05;53.28
28000;BME280;15328;50.860;10.562;2023-03-23T17:25:57;95637.09;;;13.99;54.50
28000;BME280;15328;50.860;10.562;2023-03-23T17:31:00;95645.13;;;14.04;54.12
28000;BME280;15328;50.860;10.562;2023-03-23T17:36:00;95644.47;;;13.87;54.69
28000;BME280;15328;50.860;10.562;2023-03-23T17:41:01;95644.25;;;13.93;54.17
28000;BME280;15328;50.860;10.562;2023-03-23T17:46:04;95650.94;;;13.96;54.53
28000;BME280;15328;50.860;10.562;2023-03-23T17:51:06;95643.66;;;13.86;56.04
28000;BME280;15328;50.860;10.562;2023-03-23T17:56:06;95650.03;;;13.80;56.04
28000;BME280;15328;50.860;10.562;2023-03-23T18:01:07;95645.28;;;13.87;55.73
28000;BME280;15328;50.860;10.562;2023-03-23T18:06:08;95636.13;;;13.78;56.09
28000;BME280;15328;50.860;10.562;2023-03-23T18:11:09;95645.47;;;13.76;56.01
28000;BME280;15328;50.860;10.562;2023-03-23T18:16:10;95651.06;;;13.74;55.72
28000;BME280;15328;50.860;10.562;2023-03-23T18:21:10;95653.94;;;13.68;56.17
28000;BME280;15328;50.860;10.562;2023-03-23T18:26:12;95663.00;;;13.61;55.79
28000;BME280;15328;50.860;10.562;2023-03-23T18:31:14;95665.28;;;13.48;55.62
28000;BME280;15328;50.860;10.562;2023-03-23T18:36:20;95659.44;;;13.51;55.40
28000;BME280;15328;50.860;10.562;2023-03-23T18:41:21;95663.88;;;13.40;55.24
28000;BME280;15328;50.860;10.562;2023-03-23T18:46:21;95670.47;;;13.33;55.42
28000;BME280;15328;50.860;10.562;2023-03-23T18:51:22;95676.91;;;13.10;56.44
28000;BME280;15328;50.860;10.562;2023-03-23T18:56:30;95683.75;;;13.22;56.33
28000;BME280;15328;50.860;10.562;2023-03-23T19:01:31;95690.19;;;13.26;55.96
28000;BME280;15328;50.860;10.562;2023-03-23T19:06:31;95699.06;;;13.32;56.75
28000;BME280;15328;50.860;10.562;2023-03-23T19:11:34;95699.31;;;13.30;56.11
28000;BME280;15328;50.860;10.562;2023-03-23T19:16:34;95699.31;;;13.30;57.43
28000;BME280;15328;50.860;10.562;2023-03-23T19:21:36;95690.44;;;13.25;57.95
28000;BME280;15328;50.860;10.562;2023-03-23T19:26:40;95690.44;;;13.25;58.33
28000;BME280;15328;50.860;10.562;2023-03-23T19:31:41;95677.91;;;13.25;58.05
28000;BME280;15328;50.860;10.562;2023-03-23T19:36:41;95687.22;;;13.23;59.06
28000;BME280;15328;50.860;10.562;2023-03-23T19:41:43;95677.44;;;13.12;59.69
28000;BME280;15328;50.860;10.562;2023-03-23T19:46:45;95667.44;;;13.19;59.13
28000;BME280;15328;50.860;10.562;2023-03-23T19:51:46;95661.44;;;13.12;59.61
28000;BME280;15328;50.860;10.562;2023-03-23T19:56:47;95655.03;;;13.13;59.47
28000;BME280;15328;50.860;10.562;2023-03-23T20:01:48;95654.94;;;13.03;59.24
28000;BME280;15328;50.860;10.562;2023-03-23T20:06:48;95651.66;;;12.95;59.73
28000;BME280;15328;50.860;10.562;2023-03-23T20:11:49;95643.28;;;12.87;59.49
28000;BME280;15328;50.860;10.562;2023-03-23T20:16:49;95649.44;;;12.87;59.93
28000;BME280;15328;50.860;10.562;2023-03-23T20:21:50;95651.28;;;12.87;59.75
28000;BME280;15328;50.860;10.562;2023-03-23T20:26:51;95650.44;;;12.81;59.90
28000;BME280;15328;50.860;10.562;2023-03-23T20:31:52;95647.38;;;12.67;59.94
28000;BME280;15328;50.860;10.562;2023-03-23T20:36:52;95640.28;;;12.56;60.49
28000;BME280;15328;50.860;10.562;2023-03-23T20:41:53;95634.63;;;12.53;60.94
28000;BME280;15328;50.860;10.562;2023-03-23T20:46:54;95636.75;;;12.51;60.75
28000;BME280;15328;50.860;10.562;2023-03-23T20:51:55;95618.34;;;12.49;60.38
28000;BME280;15328;50.860;10.562;2023-03-23T20:56:56;95614.31;;;12.47;60.44
28000;BME280;15328;50.860;10.562;2023-03-23T21:01:57;95619.84;;;12.40;60.74
28000;BME280;15328;50.860;10.562;2023-03-23T21:06:58;95623.81;;;12.37;60.75
28000;BME280;15328;50.860;10.562;2023-03-23T21:12:00;95622.09;;;12.31;60.97
28000;BME280;15328;50.860;10.562;2023-03-23T21:17:06;95631.31;;;12.41;59.67
28000;BME280;15328;50.860;10.562;2023-03-23T21:22:06;95626.50;;;12.21;60.03
28000;BME280;15328;50.860;10.562;2023-03-23T21:27:08;95616.16;;;12.24;59.64
28000;BME280;15328;50.860;10.562;2023-03-23T21:32:09;95608.94;;;12.03;60.42
28000;BME280;15328;50.860;10.562;2023-03-23T21:37:09;95603.88;;;12.23;59.70
28000;BME280;15328;50.860;10.562;2023-03-23T21:42:11;95600.97;;;12.25;59.69
28000;BME280;15328;50.860;10.562;2023-03-23T21:47:12;95591.59;;;12.22;59.74
28000;BME280;15328;50.860;10.562;2023-03-23T21:52:13;95592.09;;;12.19;60.18
28000;BME280;15328;50.860;10.562;2023-03-23T21:57:13;95568.06;;;12.14;60.60
28000;BME280;15328;50.860;10.562;2023-03-23T22:02:14;95570.53;;;12.21;60.38
28000;BME280;15328;50.860;10.562;2023-03-23T22:07:14;95562.47;;;12.16;61.11
28000;BME280;15328;50.860;10.562;2023-03-23T22:12:16;95565.75;;;12.23;60.86
28000;BME280;15328;50.860;10.562;2023-03-23T22:17:17;95561.31;;;12.06;62.27
28000;BME280;15328;50.860;10.562;2023-03-23T22:22:17;95555.09;;;12.23;61.79
28000;BME280;15328;50.860;10.562;2023-03-23T22:27:19;95538.97;;;12.34;61.26
28000;BME280;15328;50.860;10.562;2023-03-23T22:32:19;95545.66;;;12.37;61.55
28000;BME280;15328;50.860;10.562;2023-03-23T22:37:20;95529.09;;;12.35;61.83
28000;BME280;15328;50.860;10.562;2023-03-23T22:42:20;95521.03;;;12.30;62.07
28000;BME280;15328;50.860;10.562;2023-03-23T22:47:21;95521.56;;;12.32;62.36
28000;BME280;15328;50.860;10.562;2023-03-23T22:52:21;95514.63;;;12.31;62.61
28000;BME280;15328;50.860;10.562;2023-03-23T22:57:22;95503.78;;;12.37;62.34
28000;BME280;15328;50.860;10.562;2023-03-23T23:02:22;95501.16;;;12.43;62.40
28000;BME280;15328;50.860;10.562;2023-03-23T23:07:23;95494.78;;;12.44;62.41
28000;BME280;15328;50.860;10.562;2023-03-23T23:12:23;95490.50;;;12.43;62.57
28000;BME280;15328;50.860;10.562;2023-03-23T23:17:24;95484.06;;;12.38;62.76
28000;BME280;15328;50.860;10.562;2023-03-23T23:22:25;95461.25;;;12.53;62.41
28000;BME280;15328;50.860;10.562;2023-03-23T23:27:26;95463.88;;;12.48;62.77
28000;BME280;15328;50.860;10.562;2023-03-23T23:32:26;95468.41;;;12.47;62.96
28000;BME280;15328;50.860;10.562;2023-03-23T23:37:31;95456.16;;;12.51;62.83
28000;BME280;15328;50.860;10.562;2023-03-23T23:42:32;95457.53;;;12.54;62.88
28000;BME280;15328;50.860;10.562;2023-03-23T23:47:32;95450.56;;;12.53;63.35
28000;BME280;15328;50.860;10.562;2023-03-23T23:52:34;95453.03;;;12.59;62.87
28000;BME280;15328;50.860;10.562;2023-03-23T23:57:35;95457.78;;;12.52;63.54
